Weather at UNFICYP Camp General Stefanik Helipad

Public forecast

Using degrees Celsius for public forecast. Weather courtesy of forecast.io.

Closest aviation weather report (METAR) to UNFICYP Camp General Stefanik Helipad

Closest report is Nicosia (Lefkoşa) Ercan International Airport, 20.1 nm (37.2 km) W.

2024/05/22 04:50 (retrieved 30 minutes ago)

LCEN 220450Z 00000KT CAVOK 24/19 Q1011 NOSIG RMK RWY11R 00000KT RWY29R 00000KT RWY11L 00000KT

Closest aviation forecast (TAF) to UNFICYP Camp General Stefanik Helipad

Forecast is more than 12 hours old.

Closest forecast is Hmeimim Air Base, 100.9 nm (186.9 km) E.

2024/05/21 06:00 (retrieved 23 hours ago)

TAF OSLK 210500Z 2106/2206 23008KT CAVOK BECMG 2120/2122 09005KT CAVOK